sensor_id;sensor_type;location;lat;lon;timestamp;P1;durP1;ratioP1;P2;durP2;ratioP2
49812;SDS011;35706;52.100;5.056;2022-12-18T00:00:40;91.13;;;29.90;;
49812;SDS011;35706;52.100;5.056;2022-12-18T00:01:41;90.75;;;29.08;;
49812;SDS011;35706;52.100;5.056;2022-12-18T00:02:44;92.20;;;29.60;;
49812;SDS011;35706;52.100;5.056;2022-12-18T00:03:44;86.47;;;27.60;;
49812;SDS011;35706;52.100;5.056;2022-12-18T00:04:45;86.93;;;27.83;;
49812;SDS011;35706;52.100;5.056;2022-12-18T00:05:49;87.70;;;27.77;;
49812;SDS011;35706;52.100;5.056;2022-12-18T00:06:50;84.30;;;27.33;;
49812;SDS011;35706;52.100;5.056;2022-12-18T00:07:50;90.13;;;28.37;;
49812;SDS011;35706;52.100;5.056;2022-12-18T00:08:51;86.13;;;27.60;;
49812;SDS011;35706;52.100;5.056;2022-12-18T00:09:51;83.10;;;26.77;;
49812;SDS011;35706;52.100;5.056;2022-12-18T00:10:52;92.03;;;29.57;;
49812;SDS011;35706;52.100;5.056;2022-12-18T00:11:52;89.30;;;28.37;;
49812;SDS011;35706;52.100;5.056;2022-12-18T00:12:52;85.83;;;27.27;;
49812;SDS011;35706;52.100;5.056;2022-12-18T00:13:54;94.40;;;27.53;;
49812;SDS011;35706;52.100;5.056;2022-12-18T00:14:56;79.97;;;27.25;;
49812;SDS011;35706;52.100;5.056;2022-12-18T00:16:00;83.00;;;29.00;;
49812;SDS011;35706;52.100;5.056;2022-12-18T00:17:05;81.40;;;26.80;;
49812;SDS011;35706;52.100;5.056;2022-12-18T00:18:05;82.43;;;27.60;;
49812;SDS011;35706;52.100;5.056;2022-12-18T00:19:06;90.57;;;28.23;;
49812;SDS011;35706;52.100;5.056;2022-12-18T00:20:07;84.18;;;28.48;;
49812;SDS011;35706;52.100;5.056;2022-12-18T00:21:09;86.32;;;27.92;;
49812;SDS011;35706;52.100;5.056;2022-12-18T00:22:11;81.40;;;25.98;;
49812;SDS011;35706;52.100;5.056;2022-12-18T00:23:11;83.67;;;28.03;;
49812;SDS011;35706;52.100;5.056;2022-12-18T00:24:11;89.67;;;29.03;;
49812;SDS011;35706;52.100;5.056;2022-12-18T00:25:12;89.03;;;29.73;;
49812;SDS011;35706;52.100;5.056;2022-12-18T00:26:13;85.10;;;27.20;;
49812;SDS011;35706;52.100;5.056;2022-12-18T00:27:15;80.18;;;27.17;;
49812;SDS011;35706;52.100;5.056;2022-12-18T00:28:16;76.80;;;26.20;;
49812;SDS011;35706;52.100;5.056;2022-12-18T00:29:16;74.90;;;27.40;;
49812;SDS011;35706;52.100;5.056;2022-12-18T00:30:16;74.83;;;26.13;;
49812;SDS011;35706;52.100;5.056;2022-12-18T00:31:18;79.67;;;25.77;;
49812;SDS011;35706;52.100;5.056;2022-12-18T00:32:20;76.75;;;25.98;;
49812;SDS011;35706;52.100;5.056;2022-12-18T00:33:20;79.37;;;28.00;;
49812;SDS011;35706;52.100;5.056;2022-12-18T00:34:20;74.90;;;25.73;;
49812;SDS011;35706;52.100;5.056;2022-12-18T00:35:21;77.03;;;26.27;;
49812;SDS011;35706;52.100;5.056;2022-12-18T00:36:31;80.57;;;27.50;;
49812;SDS011;35706;52.100;5.056;2022-12-18T00:37:33;82.65;;;27.00;;
49812;SDS011;35706;52.100;5.056;2022-12-18T00:38:34;75.93;;;27.03;;
49812;SDS011;35706;52.100;5.056;2022-12-18T00:39:34;80.87;;;26.63;;
49812;SDS011;35706;52.100;5.056;2022-12-18T00:40:35;86.17;;;29.03;;
49812;SDS011;35706;52.100;5.056;2022-12-18T00:41:35;83.77;;;28.03;;
49812;SDS011;35706;52.100;5.056;2022-12-18T00:42:54;82.38;;;26.80;;
49812;SDS011;35706;52.100;5.056;2022-12-18T00:43:57;80.13;;;27.38;;
49812;SDS011;35706;52.100;5.056;2022-12-18T00:44:57;80.53;;;27.57;;
49812;SDS011;35706;52.100;5.056;2022-12-18T00:45:57;79.40;;;27.10;;
49812;SDS011;35706;52.100;5.056;2022-12-18T00:46:58;82.43;;;27.70;;
49812;SDS011;35706;52.100;5.056;2022-12-18T00:47:58;83.10;;;27.17;;
49812;SDS011;35706;52.100;5.056;2022-12-18T00:48:58;80.37;;;28.50;;
49812;SDS011;35706;52.100;5.056;2022-12-18T00:49:59;85.47;;;29.00;;
49812;SDS011;35706;52.100;5.056;2022-12-18T00:50:59;80.97;;;29.10;;
49812;SDS011;35706;52.100;5.056;2022-12-18T00:52:00;86.50;;;28.73;;
49812;SDS011;35706;52.100;5.056;2022-12-18T00:53:00;84.60;;;27.30;;
49812;SDS011;35706;52.100;5.056;2022-12-18T00:54:00;81.13;;;27.83;;
49812;SDS011;35706;52.100;5.056;2022-12-18T00:55:01;81.40;;;26.70;;
49812;SDS011;35706;52.100;5.056;2022-12-18T00:56:01;78.60;;;26.10;;
49812;SDS011;35706;52.100;5.056;2022-12-18T00:57:01;80.73;;;28.10;;
49812;SDS011;35706;52.100;5.056;2022-12-18T00:58:02;81.53;;;26.87;;
49812;SDS011;35706;52.100;5.056;2022-12-18T00:59:02;70.73;;;25.73;;
49812;SDS011;35706;52.100;5.056;2022-12-18T01:00:03;83.27;;;27.63;;
49812;SDS011;35706;52.100;5.056;2022-12-18T01:01:05;78.57;;;27.42;;
49812;SDS011;35706;52.100;5.056;2022-12-18T01:02:05;82.07;;;28.27;;
49812;SDS011;35706;52.100;5.056;2022-12-18T01:03:06;77.17;;;28.00;;
49812;SDS011;35706;52.100;5.056;2022-12-18T01:04:06;76.60;;;27.60;;
49812;SDS011;35706;52.100;5.056;2022-12-18T01:05:07;86.97;;;29.67;;
49812;SDS011;35706;52.100;5.056;2022-12-18T01:06:09;84.28;;;28.42;;
49812;SDS011;35706;52.100;5.056;2022-12-18T01:07:11;79.63;;;26.45;;
49812;SDS011;35706;52.100;5.056;2022-12-18T01:08:11;78.47;;;27.10;;
49812;SDS011;35706;52.100;5.056;2022-12-18T01:09:12;85.27;;;27.70;;
49812;SDS011;35706;52.100;5.056;2022-12-18T01:10:13;75.60;;;27.03;;
49812;SDS011;35706;52.100;5.056;2022-12-18T01:11:15;78.77;;;27.93;;
49812;SDS011;35706;52.100;5.056;2022-12-18T01:12:17;84.75;;;29.00;;
49812;SDS011;35706;52.100;5.056;2022-12-18T01:13:17;77.97;;;28.23;;
49812;SDS011;35706;52.100;5.056;2022-12-18T01:14:17;80.07;;;26.77;;
49812;SDS011;35706;52.100;5.056;2022-12-18T01:15:18;74.60;;;27.03;;
49812;SDS011;35706;52.100;5.056;2022-12-18T01:16:18;77.43;;;25.87;;
49812;SDS011;35706;52.100;5.056;2022-12-18T01:17:19;77.53;;;26.97;;
49812;SDS011;35706;52.100;5.056;2022-12-18T01:18:20;77.37;;;26.07;;
49812;SDS011;35706;52.100;5.056;2022-12-18T01:19:20;79.83;;;26.60;;
49812;SDS011;35706;52.100;5.056;2022-12-18T01:20:20;75.00;;;26.93;;
49812;SDS011;35706;52.100;5.056;2022-12-18T01:21:21;76.27;;;26.23;;
49812;SDS011;35706;52.100;5.056;2022-12-18T01:22:22;78.65;;;27.80;;
49812;SDS011;35706;52.100;5.056;2022-12-18T01:23:23;71.93;;;26.57;;
49812;SDS011;35706;52.100;5.056;2022-12-18T01:24:23;77.70;;;26.27;;
49812;SDS011;35706;52.100;5.056;2022-12-18T01:25:23;75.97;;;27.37;;
49812;SDS011;35706;52.100;5.056;2022-12-18T01:26:24;76.00;;;26.27;;
49812;SDS011;35706;52.100;5.056;2022-12-18T01:27:25;74.68;;;25.30;;
49812;SDS011;35706;52.100;5.056;2022-12-18T01:28:26;80.30;;;27.60;;
49812;SDS011;35706;52.100;5.056;2022-12-18T01:29:26;74.30;;;26.20;;
49812;SDS011;35706;52.100;5.056;2022-12-18T01:30:26;78.40;;;26.67;;
49812;SDS011;35706;52.100;5.056;2022-12-18T01:31:27;79.30;;;26.20;;
49812;SDS011;35706;52.100;5.056;2022-12-18T01:32:29;72.63;;;25.25;;
49812;SDS011;35706;52.100;5.056;2022-12-18T01:33:31;76.43;;;26.48;;
49812;SDS011;35706;52.100;5.056;2022-12-18T01:34:31;75.97;;;26.23;;
49812;SDS011;35706;52.100;5.056;2022-12-18T01:35:31;75.97;;;27.27;;
49812;SDS011;35706;52.100;5.056;2022-12-18T01:36:32;80.80;;;28.03;;
49812;SDS011;35706;52.100;5.056;2022-12-18T01:37:34;82.22;;;28.40;;
49812;SDS011;35706;52.100;5.056;2022-12-18T01:38:34;76.10;;;26.93;;
49812;SDS011;35706;52.100;5.056;2022-12-18T01:39:35;84.40;;;29.27;;
49812;SDS011;35706;52.100;5.056;2022-12-18T01:40:35;80.13;;;27.13;;
49812;SDS011;35706;52.100;5.056;2022-12-18T01:41:36;79.50;;;28.27;;
49812;SDS011;35706;52.100;5.056;2022-12-18T01:42:55;82.45;;;28.25;;
49812;SDS011;35706;52.100;5.056;2022-12-18T01:43:56;80.70;;;27.70;;
49812;SDS011;35706;52.100;5.056;2022-12-18T01:46:17;80.40;;;26.20;;
49812;SDS011;35706;52.100;5.056;2022-12-18T01:47:23;84.25;;;28.13;;
49812;SDS011;35706;52.100;5.056;2022-12-18T01:48:30;78.78;;;27.67;;
49812;SDS011;35706;52.100;5.056;2022-12-18T01:49:30;83.37;;;29.40;;
49812;SDS011;35706;52.100;5.056;2022-12-18T01:50:40;82.30;;;28.20;;
49812;SDS011;35706;52.100;5.056;2022-12-18T01:51:42;78.60;;;28.02;;
49812;SDS011;35706;52.100;5.056;2022-12-18T01:52:43;94.80;;;30.17;;
49812;SDS011;35706;52.100;5.056;2022-12-18T01:53:47;94.47;;;29.25;;
49812;SDS011;35706;52.100;5.056;2022-12-18T01:54:48;82.10;;;28.17;;
49812;SDS011;35706;52.100;5.056;2022-12-18T01:55:56;83.90;;;29.65;;
49812;SDS011;35706;52.100;5.056;2022-12-18T01:56:58;81.00;;;28.08;;
49812;SDS011;35706;52.100;5.056;2022-12-18T01:57:59;89.37;;;29.57;;
49812;SDS011;35706;52.100;5.056;2022-12-18T01:59:04;80.13;;;28.10;;
49812;SDS011;35706;52.100;5.056;2022-12-18T02:00:12;84.22;;;28.88;;
49812;SDS011;35706;52.100;5.056;2022-12-18T02:01:15;80.30;;;28.52;;
49812;SDS011;35706;52.100;5.056;2022-12-18T02:02:15;84.57;;;27.70;;
49812;SDS011;35706;52.100;5.056;2022-12-18T02:03:16;91.05;;;30.45;;
49812;SDS011;35706;52.100;5.056;2022-12-18T02:04:24;90.27;;;29.63;;
49812;SDS011;35706;52.100;5.056;2022-12-18T02:05:45;81.68;;;28.98;;
49812;SDS011;35706;52.100;5.056;2022-12-18T02:08:21;78.45;;;27.13;;
49812;SDS011;35706;52.100;5.056;2022-12-18T02:09:27;82.85;;;26.02;;
49812;SDS011;35706;52.100;5.056;2022-12-18T02:10:48;80.22;;;26.48;;
49812;SDS011;35706;52.100;5.056;2022-12-18T02:12:00;77.32;;;25.08;;
49812;SDS011;35706;52.100;5.056;2022-12-18T02:14:23;74.50;;;25.15;;
49812;SDS011;35706;52.100;5.056;2022-12-18T02:15:51;80.68;;;27.98;;
49812;SDS011;35706;52.100;5.056;2022-12-18T02:16:51;83.80;;;26.17;;
49812;SDS011;35706;52.100;5.056;2022-12-18T02:17:56;82.95;;;26.15;;
49812;SDS011;35706;52.100;5.056;2022-12-18T02:19:06;82.20;;;27.98;;
49812;SDS011;35706;52.100;5.056;2022-12-18T02:20:35;82.60;;;27.42;;
49812;SDS011;35706;52.100;5.056;2022-12-18T02:21:51;76.63;;;26.13;;
49812;SDS011;35706;52.100;5.056;2022-12-18T02:23:34;84.53;;;26.85;;
49812;SDS011;35706;52.100;5.056;2022-12-18T02:24:59;82.88;;;27.60;;
49812;SDS011;35706;52.100;5.056;2022-12-18T02:26:07;80.57;;;28.40;;
49812;SDS011;35706;52.100;5.056;2022-12-18T02:27:30;111.32;;;48.30;;
49812;SDS011;35706;52.100;5.056;2022-12-18T02:28:35;128.40;;;58.15;;
49812;SDS011;35706;52.100;5.056;2022-12-18T02:29:43;118.07;;;52.92;;
49812;SDS011;35706;52.100;5.056;2022-12-18T02:30:49;88.40;;;33.15;;
49812;SDS011;35706;52.100;5.056;2022-12-18T02:31:53;80.82;;;28.77;;
49812;SDS011;35706;52.100;5.056;2022-12-18T02:32:57;79.15;;;28.50;;
49812;SDS011;35706;52.100;5.056;2022-12-18T02:34:00;81.93;;;29.33;;
49812;SDS011;35706;52.100;5.056;2022-12-18T02:35:04;81.43;;;28.77;;
49812;SDS011;35706;52.100;5.056;2022-12-18T02:36:06;83.45;;;28.02;;
49812;SDS011;35706;52.100;5.056;2022-12-18T02:37:09;80.43;;;26.70;;
49812;SDS011;35706;52.100;5.056;2022-12-18T02:38:13;77.07;;;26.98;;
49812;SDS011;35706;52.100;5.056;2022-12-18T02:39:15;81.25;;;25.52;;
49812;SDS011;35706;52.100;5.056;2022-12-18T02:40:17;72.22;;;25.77;;
49812;SDS011;35706;52.100;5.056;2022-12-18T02:41:20;78.32;;;26.48;;
49812;SDS011;35706;52.100;5.056;2022-12-18T02:42:22;83.43;;;28.17;;
49812;SDS011;35706;52.100;5.056;2022-12-18T02:43:23;72.47;;;25.60;;
49812;SDS011;35706;52.100;5.056;2022-12-18T02:44:24;76.03;;;26.13;;
49812;SDS011;35706;52.100;5.056;2022-12-18T02:45:24;78.33;;;27.07;;
49812;SDS011;35706;52.100;5.056;2022-12-18T02:47:27;69.30;;;25.40;;
49812;SDS011;35706;52.100;5.056;2022-12-18T02:48:33;67.43;;;24.88;;
49812;SDS011;35706;52.100;5.056;2022-12-18T02:49:36;78.90;;;26.25;;
49812;SDS011;35706;52.100;5.056;2022-12-18T02:55:56;75.20;;;25.77;;
49812;SDS011;35706;52.100;5.056;2022-12-18T02:56:59;72.28;;;24.85;;
49812;SDS011;35706;52.100;5.056;2022-12-18T02:58:34;81.78;;;27.10;;
49812;SDS011;35706;52.100;5.056;2022-12-18T02:59:34;79.75;;;26.95;;
49812;SDS011;35706;52.100;5.056;2022-12-18T03:01:03;75.20;;;26.40;;
49812;SDS011;35706;52.100;5.056;2022-12-18T03:03:48;77.85;;;26.48;;
49812;SDS011;35706;52.100;5.056;2022-12-18T03:05:21;74.95;;;24.67;;
49812;SDS011;35706;52.100;5.056;2022-12-18T03:06:28;70.63;;;25.05;;
49812;SDS011;35706;52.100;5.056;2022-12-18T03:07:34;78.85;;;26.65;;
49812;SDS011;35706;52.100;5.056;2022-12-18T03:08:40;79.13;;;27.15;;
49812;SDS011;35706;52.100;5.056;2022-12-18T03:09:44;75.97;;;25.35;;
49812;SDS011;35706;52.100;5.056;2022-12-18T03:10:49;72.30;;;25.58;;
49812;SDS011;35706;52.100;5.056;2022-12-18T03:11:56;75.07;;;26.65;;
49812;SDS011;35706;52.100;5.056;2022-12-18T03:13:23;70.25;;;25.05;;
49812;SDS011;35706;52.100;5.056;2022-12-18T03:14:28;75.53;;;27.70;;
49812;SDS011;35706;52.100;5.056;2022-12-18T03:15:37;76.22;;;26.80;;
49812;SDS011;35706;52.100;5.056;2022-12-18T03:16:40;82.78;;;27.80;;
49812;SDS011;35706;52.100;5.056;2022-12-18T03:17:44;86.72;;;29.52;;
49812;SDS011;35706;52.100;5.056;2022-12-18T03:18:51;76.32;;;26.25;;
49812;SDS011;35706;52.100;5.056;2022-12-18T03:19:56;83.70;;;29.50;;
49812;SDS011;35706;52.100;5.056;2022-12-18T03:20:58;90.20;;;29.13;;
49812;SDS011;35706;52.100;5.056;2022-12-18T03:22:02;78.25;;;28.42;;
49812;SDS011;35706;52.100;5.056;2022-12-18T03:23:13;75.30;;;27.45;;
49812;SDS011;35706;52.100;5.056;2022-12-18T03:24:17;82.32;;;27.83;;
49812;SDS011;35706;52.100;5.056;2022-12-18T03:25:19;70.82;;;26.70;;
49812;SDS011;35706;52.100;5.056;2022-12-18T03:26:22;80.53;;;26.95;;
49812;SDS011;35706;52.100;5.056;2022-12-18T03:27:26;77.90;;;28.27;;
49812;SDS011;35706;52.100;5.056;2022-12-18T03:28:32;76.70;;;29.00;;
49812;SDS011;35706;52.100;5.056;2022-12-18T03:29:39;82.18;;;29.27;;
49812;SDS011;35706;52.100;5.056;2022-12-18T03:30:44;77.30;;;27.88;;
49812;SDS011;35706;52.100;5.056;2022-12-18T03:31:49;77.70;;;28.05;;
49812;SDS011;35706;52.100;5.056;2022-12-18T03:32:58;73.80;;;26.23;;
49812;SDS011;35706;52.100;5.056;2022-12-18T03:34:04;72.60;;;26.30;;
49812;SDS011;35706;52.100;5.056;2022-12-18T03:35:09;71.70;;;26.52;;
49812;SDS011;35706;52.100;5.056;2022-12-18T03:36:13;69.38;;;25.98;;
49812;SDS011;35706;52.100;5.056;2022-12-18T03:37:14;68.35;;;25.30;;
49812;SDS011;35706;52.100;5.056;2022-12-18T03:38:15;79.67;;;26.73;;
49812;SDS011;35706;52.100;5.056;2022-12-18T03:39:15;73.80;;;25.93;;
49812;SDS011;35706;52.100;5.056;2022-12-18T03:40:16;72.30;;;26.33;;
49812;SDS011;35706;52.100;5.056;2022-12-18T03:42:26;70.65;;;25.88;;
49812;SDS011;35706;52.100;5.056;2022-12-18T03:46:30;65.97;;;23.45;;
49812;SDS011;35706;52.100;5.056;2022-12-18T03:47:39;70.43;;;24.50;;
49812;SDS011;35706;52.100;5.056;2022-12-18T03:48:44;66.97;;;23.60;;
49812;SDS011;35706;52.100;5.056;2022-12-18T03:49:57;61.38;;;23.45;;
49812;SDS011;35706;52.100;5.056;2022-12-18T03:51:33;67.20;;;24.27;;
49812;SDS011;35706;52.100;5.056;2022-12-18T03:52:46;64.45;;;21.92;;
49812;SDS011;35706;52.100;5.056;2022-12-18T03:53:55;55.03;;;22.27;;
49812;SDS011;35706;52.100;5.056;2022-12-18T03:55:02;60.35;;;23.38;;
49812;SDS011;35706;52.100;5.056;2022-12-18T03:56:05;57.33;;;23.13;;
49812;SDS011;35706;52.100;5.056;2022-12-18T03:57:08;61.95;;;22.50;;
49812;SDS011;35706;52.100;5.056;2022-12-18T03:58:14;59.83;;;22.85;;
49812;SDS011;35706;52.100;5.056;2022-12-18T03:59:19;59.30;;;23.30;;
49812;SDS011;35706;52.100;5.056;2022-12-18T04:00:20;63.43;;;23.43;;
49812;SDS011;35706;52.100;5.056;2022-12-18T04:01:22;58.90;;;22.60;;
49812;SDS011;35706;52.100;5.056;2022-12-18T04:02:28;54.08;;;21.45;;
49812;SDS011;35706;52.100;5.056;2022-12-18T04:03:30;60.85;;;23.15;;
49812;SDS011;35706;52.100;5.056;2022-12-18T04:04:32;58.45;;;22.00;;
49812;SDS011;35706;52.100;5.056;2022-12-18T04:05:35;63.35;;;23.23;;
49812;SDS011;35706;52.100;5.056;2022-12-18T04:06:37;61.47;;;22.05;;
49812;SDS011;35706;52.100;5.056;2022-12-18T04:07:39;54.85;;;21.65;;
49812;SDS011;35706;52.100;5.056;2022-12-18T04:08:41;62.45;;;22.98;;
49812;SDS011;35706;52.100;5.056;2022-12-18T04:09:41;60.30;;;23.33;;
49812;SDS011;35706;52.100;5.056;2022-12-18T04:10:44;53.20;;;22.10;;
49812;SDS011;35706;52.100;5.056;2022-12-18T04:11:45;61.90;;;23.90;;
49812;SDS011;35706;52.100;5.056;2022-12-18T04:12:46;56.50;;;22.48;;
49812;SDS011;35706;52.100;5.056;2022-12-18T04:13:46;57.87;;;22.70;;
49812;SDS011;35706;52.100;5.056;2022-12-18T04:14:47;55.67;;;22.43;;
49812;SDS011;35706;52.100;5.056;2022-12-18T04:15:47;60.80;;;22.63;;
49812;SDS011;35706;52.100;5.056;2022-12-18T04:16:47;58.83;;;21.33;;
49812;SDS011;35706;52.100;5.056;2022-12-18T04:17:48;64.13;;;22.50;;
49812;SDS011;35706;52.100;5.056;2022-12-18T04:18:49;56.92;;;21.38;;
49812;SDS011;35706;52.100;5.056;2022-12-18T04:19:50;61.27;;;22.47;;
49812;SDS011;35706;52.100;5.056;2022-12-18T04:20:50;59.37;;;22.27;;
49812;SDS011;35706;52.100;5.056;2022-12-18T04:21:51;55.47;;;21.43;;
49812;SDS011;35706;52.100;5.056;2022-12-18T04:22:51;58.63;;;22.73;;
49812;SDS011;35706;52.100;5.056;2022-12-18T04:23:51;54.30;;;21.80;;
49812;SDS011;35706;52.100;5.056;2022-12-18T04:24:51;53.73;;;22.07;;
49812;SDS011;35706;52.100;5.056;2022-12-18T04:25:52;54.30;;;21.90;;
49812;SDS011;35706;52.100;5.056;2022-12-18T04:26:52;57.07;;;21.83;;
49812;SDS011;35706;52.100;5.056;2022-12-18T04:27:52;59.47;;;22.60;;
49812;SDS011;35706;52.100;5.056;2022-12-18T04:28:52;56.40;;;22.93;;
49812;SDS011;35706;52.100;5.056;2022-12-18T04:29:53;57.90;;;22.10;;
49812;SDS011;35706;52.100;5.056;2022-12-18T04:30:53;56.00;;;23.33;;
49812;SDS011;35706;52.100;5.056;2022-12-18T04:31:53;55.00;;;22.10;;
49812;SDS011;35706;52.100;5.056;2022-12-18T04:32:54;54.07;;;22.13;;
49812;SDS011;35706;52.100;5.056;2022-12-18T04:33:54;56.13;;;22.50;;
49812;SDS011;35706;52.100;5.056;2022-12-18T04:34:54;54.03;;;22.73;;
49812;SDS011;35706;52.100;5.056;2022-12-18T04:35:55;56.83;;;23.20;;
49812;SDS011;35706;52.100;5.056;2022-12-18T04:36:55;56.27;;;21.03;;
49812;SDS011;35706;52.100;5.056;2022-12-18T04:37:55;57.87;;;22.60;;
49812;SDS011;35706;52.100;5.056;2022-12-18T04:38:55;55.63;;;22.97;;
49812;SDS011;35706;52.100;5.056;2022-12-18T04:39:56;62.13;;;23.40;;
49812;SDS011;35706;52.100;5.056;2022-12-18T04:40:56;54.33;;;22.37;;
49812;SDS011;35706;52.100;5.056;2022-12-18T04:41:56;60.30;;;23.13;;
49812;SDS011;35706;52.100;5.056;2022-12-18T04:42:57;54.50;;;22.63;;
49812;SDS011;35706;52.100;5.056;2022-12-18T04:43:57;57.03;;;24.13;;
49812;SDS011;35706;52.100;5.056;2022-12-18T04:44:57;57.30;;;24.13;;
49812;SDS011;35706;52.100;5.056;2022-12-18T04:46:04;61.10;;;24.27;;
49812;SDS011;35706;52.100;5.056;2022-12-18T04:47:06;59.70;;;25.27;;
49812;SDS011;35706;52.100;5.056;2022-12-18T04:48:07;62.30;;;24.20;;
49812;SDS011;35706;52.100;5.056;2022-12-18T04:49:07;59.63;;;24.03;;
49812;SDS011;35706;52.100;5.056;2022-12-18T04:50:10;55.17;;;24.20;;
49812;SDS011;35706;52.100;5.056;2022-12-18T04:51:10;58.40;;;23.90;;
49812;SDS011;35706;52.100;5.056;2022-12-18T04:52:10;61.63;;;24.00;;
49812;SDS011;35706;52.100;5.056;2022-12-18T04:53:11;55.40;;;23.67;;
49812;SDS011;35706;52.100;5.056;2022-12-18T04:54:11;61.40;;;25.63;;
49812;SDS011;35706;52.100;5.056;2022-12-18T04:55:11;57.70;;;24.10;;
49812;SDS011;35706;52.100;5.056;2022-12-18T04:56:13;57.77;;;25.03;;
49812;SDS011;35706;52.100;5.056;2022-12-18T04:57:14;55.22;;;23.23;;
49812;SDS011;35706;52.100;5.056;2022-12-18T04:58:15;60.20;;;24.47;;
49812;SDS011;35706;52.100;5.056;2022-12-18T04:59:15;62.07;;;23.70;;
49812;SDS011;35706;52.100;5.056;2022-12-18T05:00:16;61.30;;;24.80;;
49812;SDS011;35706;52.100;5.056;2022-12-18T05:01:17;57.27;;;22.93;;
49812;SDS011;35706;52.100;5.056;2022-12-18T05:02:18;53.10;;;22.88;;
49812;SDS011;35706;52.100;5.056;2022-12-18T05:03:18;60.10;;;23.40;;
49812;SDS011;35706;52.100;5.056;2022-12-18T05:04:18;52.23;;;22.10;;
49812;SDS011;35706;52.100;5.056;2022-12-18T05:05:18;51.90;;;23.57;;
49812;SDS011;35706;52.100;5.056;2022-12-18T05:06:19;53.30;;;23.07;;
49812;SDS011;35706;52.100;5.056;2022-12-18T05:07:19;55.60;;;23.13;;
49812;SDS011;35706;52.100;5.056;2022-12-18T05:08:19;51.67;;;22.33;;
49812;SDS011;35706;52.100;5.056;2022-12-18T05:09:20;51.87;;;22.37;;
49812;SDS011;35706;52.100;5.056;2022-12-18T05:10:20;55.00;;;22.57;;
49812;SDS011;35706;52.100;5.056;2022-12-18T05:11:20;58.33;;;22.67;;
49812;SDS011;35706;52.100;5.056;2022-12-18T05:12:21;58.67;;;22.17;;
49812;SDS011;35706;52.100;5.056;2022-12-18T05:13:21;53.33;;;22.37;;
49812;SDS011;35706;52.100;5.056;2022-12-18T05:14:21;56.17;;;21.93;;
49812;SDS011;35706;52.100;5.056;2022-12-18T05:15:21;52.73;;;22.83;;
49812;SDS011;35706;52.100;5.056;2022-12-18T05:16:22;50.03;;;20.73;;
49812;SDS011;35706;52.100;5.056;2022-12-18T05:17:22;50.60;;;21.43;;
49812;SDS011;35706;52.100;5.056;2022-12-18T05:18:23;53.57;;;22.37;;
49812;SDS011;35706;52.100;5.056;2022-12-18T05:19:24;52.53;;;21.88;;
49812;SDS011;35706;52.100;5.056;2022-12-18T05:20:24;50.33;;;20.80;;
49812;SDS011;35706;52.100;5.056;2022-12-18T05:21:25;51.10;;;20.40;;
49812;SDS011;35706;52.100;5.056;2022-12-18T05:22:25;51.60;;;20.20;;
49812;SDS011;35706;52.100;5.056;2022-12-18T05:23:25;46.07;;;20.50;;
49812;SDS011;35706;52.100;5.056;2022-12-18T05:24:26;53.78;;;22.13;;
49812;SDS011;35706;52.100;5.056;2022-12-18T05:25:27;48.43;;;20.23;;
49812;SDS011;35706;52.100;5.056;2022-12-18T05:26:27;49.47;;;20.13;;
49812;SDS011;35706;52.100;5.056;2022-12-18T05:27:27;51.07;;;20.27;;
49812;SDS011;35706;52.100;5.056;2022-12-18T05:28:28;51.73;;;22.30;;
49812;SDS011;35706;52.100;5.056;2022-12-18T05:29:30;47.25;;;20.65;;
49812;SDS011;35706;52.100;5.056;2022-12-18T05:30:30;46.47;;;20.73;;
49812;SDS011;35706;52.100;5.056;2022-12-18T05:31:31;48.23;;;19.90;;
49812;SDS011;35706;52.100;5.056;2022-12-18T05:32:31;47.37;;;19.33;;
49812;SDS011;35706;52.100;5.056;2022-12-18T05:33:32;48.93;;;20.17;;
49812;SDS011;35706;52.100;5.056;2022-12-18T05:34:34;47.72;;;20.23;;
49812;SDS011;35706;52.100;5.056;2022-12-18T05:35:34;45.63;;;19.40;;
49812;SDS011;35706;52.100;5.056;2022-12-18T05:36:34;46.47;;;18.93;;
49812;SDS011;35706;52.100;5.056;2022-12-18T05:37:35;44.00;;;18.80;;
49812;SDS011;35706;52.100;5.056;2022-12-18T05:38:37;43.23;;;17.87;;
49812;SDS011;35706;52.100;5.056;2022-12-18T05:39:38;42.17;;;17.67;;
49812;SDS011;35706;52.100;5.056;2022-12-18T05:40:40;45.33;;;18.57;;
49812;SDS011;35706;52.100;5.056;2022-12-18T05:41:42;40.95;;;17.75;;
49812;SDS011;35706;52.100;5.056;2022-12-18T05:42:42;43.17;;;18.30;;
49812;SDS011;35706;52.100;5.056;2022-12-18T05:43:42;40.70;;;18.03;;
49812;SDS011;35706;52.100;5.056;2022-12-18T05:44:43;43.27;;;17.43;;
49812;SDS011;35706;52.100;5.056;2022-12-18T05:45:44;44.63;;;18.03;;
49812;SDS011;35706;52.100;5.056;2022-12-18T05:46:45;41.33;;;16.87;;
49812;SDS011;35706;52.100;5.056;2022-12-18T05:47:45;42.87;;;16.80;;
49812;SDS011;35706;52.100;5.056;2022-12-18T05:48:45;40.23;;;16.77;;
49812;SDS011;35706;52.100;5.056;2022-12-18T05:49:46;40.63;;;16.80;;
49812;SDS011;35706;52.100;5.056;2022-12-18T05:50:47;41.20;;;16.80;;
49812;SDS011;35706;52.100;5.056;2022-12-18T05:51:48;43.75;;;16.55;;
49812;SDS011;35706;52.100;5.056;2022-12-18T05:52:49;38.77;;;16.23;;
49812;SDS011;35706;52.100;5.056;2022-12-18T05:53:49;34.53;;;14.83;;
49812;SDS011;35706;52.100;5.056;2022-12-18T05:54:49;32.67;;;14.50;;
49812;SDS011;35706;52.100;5.056;2022-12-18T05:55:49;34.60;;;15.70;;
49812;SDS011;35706;52.100;5.056;2022-12-18T05:56:50;37.50;;;15.27;;
49812;SDS011;35706;52.100;5.056;2022-12-18T05:57:50;36.90;;;15.47;;
49812;SDS011;35706;52.100;5.056;2022-12-18T05:58:51;34.83;;;14.80;;
49812;SDS011;35706;52.100;5.056;2022-12-18T05:59:53;33.33;;;13.90;;
49812;SDS011;35706;52.100;5.056;2022-12-18T06:00:53;38.57;;;13.90;;
49812;SDS011;35706;52.100;5.056;2022-12-18T06:01:53;36.63;;;15.33;;
49812;SDS011;35706;52.100;5.056;2022-12-18T06:02:54;38.10;;;14.00;;
49812;SDS011;35706;52.100;5.056;2022-12-18T06:03:54;34.50;;;14.07;;
49812;SDS011;35706;52.100;5.056;2022-12-18T06:04:55;31.37;;;13.60;;
49812;SDS011;35706;52.100;5.056;2022-12-18T06:05:55;36.40;;;14.10;;
49812;SDS011;35706;52.100;5.056;2022-12-18T06:06:55;35.37;;;13.87;;
49812;SDS011;35706;52.100;5.056;2022-12-18T06:07:55;32.77;;;14.03;;
49812;SDS011;35706;52.100;5.056;2022-12-18T06:08:56;30.87;;;13.67;;
49812;SDS011;35706;52.100;5.056;2022-12-18T06:09:56;32.90;;;13.67;;
49812;SDS011;35706;52.100;5.056;2022-12-18T06:10:57;31.53;;;13.87;;
49812;SDS011;35706;52.100;5.056;2022-12-18T06:11:57;28.50;;;13.00;;
49812;SDS011;35706;52.100;5.056;2022-12-18T06:12:57;31.73;;;12.93;;
49812;SDS011;35706;52.100;5.056;2022-12-18T06:13:58;31.23;;;12.73;;
49812;SDS011;35706;52.100;5.056;2022-12-18T06:14:58;32.40;;;13.70;;
49812;SDS011;35706;52.100;5.056;2022-12-18T06:16:01;27.33;;;13.03;;
49812;SDS011;35706;52.100;5.056;2022-12-18T06:17:02;25.88;;;12.35;;
49812;SDS011;35706;52.100;5.056;2022-12-18T06:18:03;28.87;;;13.40;;
49812;SDS011;35706;52.100;5.056;2022-12-18T06:19:04;32.27;;;13.50;;
49812;SDS011;35706;52.100;5.056;2022-12-18T06:20:05;29.92;;;13.15;;
49812;SDS011;35706;52.100;5.056;2022-12-18T06:21:06;35.50;;;13.65;;
49812;SDS011;35706;52.100;5.056;2022-12-18T06:22:07;32.80;;;13.50;;
49812;SDS011;35706;52.100;5.056;2022-12-18T06:23:07;29.20;;;13.43;;
49812;SDS011;35706;52.100;5.056;2022-12-18T06:24:08;32.70;;;13.27;;